Time;durP1;ratioP1;P1;durP2;ratioP2;P2;SDS_P1;SDS_P2;PMS_P1;PMS_P2;Temp;Humidity;BMP_temperature;BMP_pressure;BME280_temperature;BME280_humidity;BME280_pressure;Samples;Min_cycle;Max_cycle;Signal;HPM_P1;HPM_P2
2022/11/27 00:01:40;;;;;;;0.50;0.50;;;7.80;99.90;;;;;;4392229;32;20081;-70
2022/11/27 00:04:07;;;;;;;2.08;1.10;;;7.70;99.90;;;;;;4375984;32;20814;-72
2022/11/27 00:06:34;;;;;;;1.65;1.00;;;7.80;99.90;;;;;;4372882;32;20066;-73
2022/11/27 00:09:01;;;;;;;1.08;1.02;;;7.90;99.90;;;;;;4389610;32;20091;-69
2022/11/27 00:11:28;;;;;;;0.65;0.65;;;7.80;99.90;;;;;;4385260;32;20086;-69
2022/11/27 00:13:54;;;;;;;0.70;0.70;;;7.80;99.90;;;;;;4387740;32;20074;-70
2022/11/27 00:16:21;;;;;;;0.80;0.73;;;7.90;99.90;;;;;;4385982;32;20615;-69
2022/11/27 00:18:47;;;;;;;3.05;1.85;;;7.80;99.90;;;;;;4385499;32;20086;-71
2022/11/27 00:21:15;;;;;;;0.57;0.57;;;7.80;99.90;;;;;;4388417;32;20099;-70
2022/11/27 00:23:41;;;;;;;0.50;0.50;;;7.80;99.90;;;;;;4385268;32;20127;-70
2022/11/27 00:26:07;;;;;;;0.82;0.82;;;7.80;99.90;;;;;;4387378;32;20491;-71
2022/11/27 00:28:33;;;;;;;0.43;0.43;;;7.80;99.90;;;;;;4389054;32;20150;-69
2022/11/27 00:31:01;;;;;;;5.22;1.48;;;7.70;99.90;;;;;;4386718;32;20139;-70
2022/11/27 00:33:27;;;;;;;0.70;0.68;;;7.70;99.90;;;;;;4379503;32;20070;-72
2022/11/27 00:35:53;;;;;;;3.03;1.20;;;7.60;99.90;;;;;;4366753;32;20427;-72
2022/11/27 00:38:19;;;;;;;0.60;0.60;;;7.50;99.90;;;;;;4382215;32;20086;-69
2022/11/27 00:40:45;;;;;;;2.92;1.25;;;7.60;99.90;;;;;;4388363;32;20340;-70
2022/11/27 00:43:11;;;;;;;0.90;0.85;;;7.60;99.90;;;;;;4389443;32;20471;-71
2022/11/27 00:45:36;;;;;;;2.25;1.77;;;7.60;99.90;;;;;;4391718;32;20090;-70
2022/11/27 00:48:02;;;;;;;0.50;0.50;;;7.70;99.90;;;;;;4390726;32;20798;-70
2022/11/27 00:50:30;;;;;;;3.78;1.92;;;7.70;99.90;;;;;;4389716;32;20090;-70
2022/11/27 00:52:56;;;;;;;1.17;1.05;;;7.80;99.90;;;;;;4384731;32;20087;-70
2022/11/27 00:55:22;;;;;;;0.50;0.50;;;7.80;99.90;;;;;;4384143;32;20828;-69
2022/11/27 00:57:47;;;;;;;3.37;1.33;;;7.90;99.90;;;;;;4387368;32;20099;-70
2022/11/27 01:00:13;;;;;;;0.55;0.55;;;7.90;99.90;;;;;;4383864;32;20526;-69
2022/11/27 01:02:39;;;;;;;0.45;0.45;;;7.90;99.90;;;;;;4389195;32;20082;-70
2022/11/27 01:05:05;;;;;;;0.95;0.95;;;7.90;99.90;;;;;;4368964;32;20168;-70
2022/11/27 01:07:30;;;;;;;3.33;1.60;;;7.80;99.90;;;;;;4382537;32;20070;-69
2022/11/27 01:09:56;;;;;;;1.58;0.93;;;7.80;99.90;;;;;;4388297;32;20471;-71
2022/11/27 01:12:21;;;;;;;3.12;1.10;;;7.70;99.90;;;;;;4388354;32;20140;-70
2022/11/27 01:14:47;;;;;;;6.87;1.60;;;7.70;99.90;;;;;;4386569;32;20086;-71
2022/11/27 01:17:12;;;;;;;0.70;0.70;;;7.70;99.90;;;;;;4387954;32;20074;-69
2022/11/27 01:19:37;;;;;;;1.67;1.23;;;7.60;99.90;;;;;;4387617;32;20193;-69
2022/11/27 01:22:03;;;;;;;0.52;0.52;;;7.50;99.90;;;;;;4389299;32;20066;-70
2022/11/27 01:24:28;;;;;;;1.15;0.85;;;7.60;99.90;;;;;;4386723;32;20121;-69
2022/11/27 01:26:54;;;;;;;1.80;1.10;;;7.60;99.90;;;;;;4388596;32;20551;-69
2022/11/27 01:29:19;;;;;;;1.30;1.05;;;7.60;99.90;;;;;;4386716;32;20066;-70
2022/11/27 01:31:45;;;;;;;0.68;0.68;;;7.60;99.90;;;;;;4387261;32;20078;-70
2022/11/27 01:34:14;;;;;;;1.23;0.82;;;7.70;99.90;;;;;;4376180;32;20078;-74
2022/11/27 01:36:40;;;;;;;3.40;1.25;;;7.70;99.90;;;;;;4371320;32;20204;-70
2022/11/27 01:39:06;;;;;;;0.82;0.77;;;7.60;99.90;;;;;;4387287;32;20563;-70
2022/11/27 01:41:35;;;;;;;1.15;1.00;;;7.60;99.90;;;;;;4387936;32;20082;-69
2022/11/27 01:44:23;;;;;;;0.47;0.47;;;7.60;99.90;;;;;;4387221;32;20439;-69
2022/11/27 01:46:57;;;;;;;0.62;0.62;;;7.60;99.90;;;;;;4375760;32;20070;-70
2022/11/27 01:49:30;;;;;;;5.60;1.90;;;7.50;99.90;;;;;;4387913;32;20177;-69
2022/11/27 01:52:05;;;;;;;2.78;1.67;;;7.40;99.90;;;;;;4385343;32;20098;-71
2022/11/27 01:54:38;;;;;;;7.28;1.23;;;7.30;99.90;;;;;;4384857;32;20113;-69
2022/11/27 01:57:10;;;;;;;1.45;0.60;;;7.30;99.90;;;;;;4388050;32;20058;-70
2022/11/27 01:59:36;;;;;;;4.03;1.48;;;7.40;99.90;;;;;;4391392;32;20656;-69
2022/11/27 02:02:02;;;;;;;0.60;0.60;;;7.50;99.90;;;;;;4388185;32;20100;-68
2022/11/27 02:04:28;;;;;;;1.75;0.98;;;7.40;99.90;;;;;;4371081;32;20222;-71
2022/11/27 02:06:57;;;;;;;0.70;0.70;;;7.30;99.90;;;;;;4373226;32;20176;-69
2022/11/27 02:09:22;;;;;;;2.20;1.23;;;7.40;99.90;;;;;;4385592;32;20223;-71
2022/11/27 02:12:00;;;;;;;1.17;1.10;;;7.30;99.90;;;;;;4386168;32;20389;-70
2022/11/27 02:14:43;;;;;;;0.80;0.80;;;7.30;99.90;;;;;;4386296;32;20517;-69
2022/11/27 02:17:17;;;;;;;0.82;0.82;;;7.20;99.90;;;;;;4387254;32;20082;-70
2022/11/27 02:20:23;;;;;;;3.25;1.75;;;7.20;99.90;;;;;;4386101;32;20065;-69
2022/11/27 02:23:22;;;;;;;1.60;1.00;;;7.30;99.90;;;;;;4365970;32;20079;-70
2022/11/27 02:26:16;;;;;;;1.12;1.05;;;7.40;99.90;;;;;;4373852;32;20510;-70
2022/11/27 02:29:04;;;;;;;0.50;0.50;;;7.40;99.90;;;;;;4376868;32;20071;-71
2022/11/27 02:31:42;;;;;;;5.22;1.05;;;7.30;99.90;;;;;;4372827;32;20105;-71
2022/11/27 02:34:27;;;;;;;10.50;1.77;;;7.30;99.90;;;;;;4374708;32;20780;-73
2022/11/27 02:37:17;;;;;;;0.45;0.45;;;7.40;99.90;;;;;;4358209;32;20074;-69
2022/11/27 02:40:05;;;;;;;2.05;1.85;;;7.40;99.90;;;;;;4390901;32;20157;-70
2022/11/27 02:42:38;;;;;;;1.25;0.93;;;7.40;99.90;;;;;;4374255;32;20098;-69
2022/11/27 02:45:09;;;;;;;0.60;0.60;;;7.30;99.90;;;;;;4385981;32;20144;-69
2022/11/27 02:47:35;;;;;;;0.90;0.90;;;7.30;99.90;;;;;;4390062;32;20058;-71
2022/11/27 02:50:02;;;;;;;14.23;1.75;;;7.30;99.90;;;;;;4389753;32;20078;-70
2022/11/27 02:52:28;;;;;;;0.70;0.70;;;7.20;99.90;;;;;;4382740;32;20177;-69
2022/11/27 02:54:57;;;;;;;1.10;1.00;;;7.20;99.90;;;;;;4386354;32;20503;-69
2022/11/27 02:57:24;;;;;;;2.67;1.05;;;7.20;99.90;;;;;;4386017;32;20575;-69
2022/11/27 02:59:53;;;;;;;22.15;1.50;;;7.10;99.90;;;;;;4386647;32;20102;-71
2022/11/27 03:02:23;;;;;;;0.93;0.93;;;7.10;99.90;;;;;;4387849;32;20077;-71
2022/11/27 03:04:53;;;;;;;3.70;2.33;;;7.10;99.90;;;;;;4371919;32;20079;-71
2022/11/27 03:07:37;;;;;;;20.27;0.80;;;7.00;99.90;;;;;;4374605;32;20777;-69
2022/11/27 03:10:10;;;;;;;8.77;1.27;;;7.00;99.90;;;;;;4383401;32;20091;-69
2022/11/27 03:12:37;;;;;;;1.23;1.15;;;6.90;99.90;;;;;;4386608;32;20440;-71
2022/11/27 03:15:03;;;;;;;0.80;0.77;;;6.90;99.90;;;;;;4383991;32;21472;-69
2022/11/27 03:17:52;;;;;;;1.33;1.23;;;6.80;99.90;;;;;;4384719;32;20105;-70
2022/11/27 03:20:23;;;;;;;3.45;1.08;;;6.70;99.90;;;;;;4375720;32;20063;-69
2022/11/27 03:22:50;;;;;;;1.02;0.95;;;6.70;99.90;;;;;;4384568;32;20071;-70
2022/11/27 03:25:16;;;;;;;0.65;0.65;;;6.60;99.90;;;;;;4389071;32;20121;-69
2022/11/27 03:27:48;;;;;;;0.68;0.68;;;6.50;99.90;;;;;;4383340;32;20225;-70
2022/11/27 03:30:14;;;;;;;0.85;0.85;;;6.40;99.90;;;;;;4387130;32;20067;-70
2022/11/27 03:32:40;;;;;;;0.80;0.80;;;6.30;99.90;;;;;;4384379;32;20830;-71
2022/11/27 03:35:09;;;;;;;0.60;0.60;;;6.20;99.90;;;;;;4370923;32;20565;-73
2022/11/27 03:37:35;;;;;;;3.87;1.50;;;6.10;99.90;;;;;;4380681;32;20062;-71
2022/11/27 03:40:02;;;;;;;0.70;0.70;;;6.10;99.90;;;;;;4385891;32;20097;-70
2022/11/27 03:42:37;;;;;;;0.60;0.60;;;6.10;99.90;;;;;;4390082;32;20067;-70
2022/11/27 03:45:12;;;;;;;0.70;0.70;;;6.10;99.90;;;;;;4393183;32;20178;-69
2022/11/27 03:47:47;;;;;;;1.35;1.08;;;6.00;99.90;;;;;;4390260;32;20089;-69
2022/11/27 03:50:43;;;;;;;1.02;0.70;;;6.00;99.90;;;;;;4391174;32;20074;-69
2022/11/27 03:53:20;;;;;;;7.75;1.48;;;6.00;99.90;;;;;;4388763;32;20451;-70
2022/11/27 03:55:59;;;;;;;3.60;1.85;;;6.00;99.90;;;;;;4388657;32;20078;-69
2022/11/27 03:58:33;;;;;;;3.53;1.62;;;6.00;99.90;;;;;;4387951;32;20132;-70
2022/11/27 04:01:00;;;;;;;1.52;1.35;;;6.00;99.90;;;;;;4390030;32;20066;-69
2022/11/27 04:03:28;;;;;;;0.65;0.65;;;6.00;99.90;;;;;;4380650;32;20066;-73
2022/11/27 04:05:54;;;;;;;1.60;1.37;;;6.00;99.90;;;;;;4368652;32;20066;-69
2022/11/27 04:08:20;;;;;;;1.17;0.77;;;5.90;99.90;;;;;;4382886;32;20087;-70
2022/11/27 04:10:46;;;;;;;1.35;0.98;;;5.80;99.90;;;;;;4387376;32;20082;-69
2022/11/27 04:13:11;;;;;;;0.90;0.90;;;5.70;99.90;;;;;;4388385;32;20070;-68
2022/11/27 04:15:37;;;;;;;3.83;1.55;;;5.60;99.90;;;;;;4386360;32;20591;-72
2022/11/27 04:18:03;;;;;;;24.12;1.60;;;5.60;99.90;;;;;;4386333;32;20082;-70
2022/11/27 04:20:28;;;;;;;1.33;1.23;;;5.60;99.90;;;;;;4391292;32;20074;-69
2022/11/27 04:22:54;;;;;;;4.20;2.03;;;5.60;99.90;;;;;;4387351;32;20523;-70
2022/11/27 04:25:20;;;;;;;0.85;0.85;;;5.50;99.90;;;;;;4388475;32;20118;-69
2022/11/27 04:27:45;;;;;;;0.65;0.65;;;5.50;99.90;;;;;;4386849;32;20159;-69
2022/11/27 04:30:11;;;;;;;0.50;0.50;;;5.50;99.90;;;;;;4384166;32;20078;-69
2022/11/27 04:32:36;;;;;;;3.03;1.87;;;5.50;99.90;;;;;;4384910;32;20558;-74
2022/11/27 04:35:03;;;;;;;1.17;1.10;;;5.60;99.90;;;;;;4369232;32;20086;-72
2022/11/27 04:37:29;;;;;;;1.30;1.20;;;5.60;99.90;;;;;;4378380;32;20078;-70
2022/11/27 04:39:54;;;;;;;2.80;1.60;;;5.50;99.90;;;;;;4388941;32;20126;-69
2022/11/27 04:42:20;;;;;;;1.08;0.98;;;5.50;99.90;;;;;;4388542;32;20110;-69
2022/11/27 04:44:45;;;;;;;2.05;1.80;;;5.50;99.90;;;;;;4389197;32;20190;-70
2022/11/27 04:47:10;;;;;;;1.52;1.05;;;5.50;99.90;;;;;;4385030;32;20592;-71
2022/11/27 04:49:36;;;;;;;0.60;0.60;;;5.40;99.90;;;;;;4386261;32;20099;-69
2022/11/27 04:52:02;;;;;;;0.62;0.62;;;5.30;99.90;;;;;;4388813;32;20501;-69
2022/11/27 04:54:27;;;;;;;0.68;0.68;;;5.20;99.90;;;;;;4387263;32;20090;-71
2022/11/27 04:56:52;;;;;;;2.25;0.90;;;5.20;99.90;;;;;;4385407;32;20070;-69
2022/11/27 04:59:19;;;;;;;1.00;1.00;;;5.20;99.90;;;;;;4390578;32;20078;-70
2022/11/27 05:01:44;;;;;;;1.50;1.40;;;5.10;99.90;;;;;;4389678;32;20094;-71
2022/11/27 05:04:09;;;;;;;0.62;0.62;;;5.00;99.90;;;;;;4377836;32;20407;-73
2022/11/27 05:06:35;;;;;;;4.18;1.83;;;5.00;99.90;;;;;;4367987;32;20128;-72
2022/11/27 05:09:01;;;;;;;2.35;1.20;;;5.00;99.90;;;;;;4386217;32;20537;-69
2022/11/27 05:11:28;;;;;;;0.80;0.80;;;5.00;99.90;;;;;;4386428;32;20089;-69
2022/11/27 05:14:13;;;;;;;0.80;0.80;;;4.90;99.90;;;;;;4391079;32;20086;-70
2022/11/27 05:16:40;;;;;;;16.25;2.85;;;4.90;99.90;;;;;;4387529;32;20069;-69
2022/11/27 05:19:07;;;;;;;2.90;1.10;;;4.90;99.90;;;;;;4391836;32;20542;-69
2022/11/27 05:21:33;;;;;;;4.87;1.40;;;4.90;99.90;;;;;;4388503;32;20288;-71
2022/11/27 05:23:58;;;;;;;1.52;1.42;;;4.80;99.90;;;;;;4388592;32;20122;-71
2022/11/27 05:26:24;;;;;;;2.62;0.85;;;4.90;99.90;;;;;;4386200;32;20097;-69
2022/11/27 05:28:49;;;;;;;3.10;1.33;;;4.80;99.90;;;;;;4389347;32;20526;-70
2022/11/27 05:31:15;;;;;;;14.82;1.95;;;4.70;99.90;;;;;;4390256;32;20122;-69
2022/11/27 05:33:40;;;;;;;0.85;0.85;;;4.70;99.90;;;;;;4375569;32;20899;-73
2022/11/27 05:36:06;;;;;;;0.90;0.90;;;4.70;99.90;;;;;;4369236;32;20122;-71
2022/11/27 05:38:31;;;;;;;0.70;0.70;;;4.60;99.90;;;;;;4388472;32;20066;-71
2022/11/27 05:40:57;;;;;;;0.40;0.40;;;4.50;99.90;;;;;;4389279;32;20101;-71
2022/11/27 05:43:22;;;;;;;0.40;0.40;;;4.50;99.90;;;;;;4386768;32;20420;-69
2022/11/27 05:45:48;;;;;;;1.30;1.20;;;4.50;99.90;;;;;;4383399;32;20132;-70
2022/11/27 05:48:13;;;;;;;1.02;1.02;;;4.50;99.90;;;;;;4385657;32;20078;-70
2022/11/27 05:50:39;;;;;;;1.25;1.15;;;4.40;99.90;;;;;;4389612;32;20104;-70
2022/11/27 05:53:04;;;;;;;0.70;0.70;;;4.40;99.90;;;;;;4385898;32;20086;-69
2022/11/27 05:55:30;;;;;;;0.50;0.50;;;4.30;99.90;;;;;;4389068;32;20756;-68
2022/11/27 05:57:56;;;;;;;2.30;1.02;;;4.30;99.90;;;;;;4386496;32;20129;-69
2022/11/27 06:00:21;;;;;;;0.90;0.90;;;4.30;99.90;;;;;;4386789;32;20440;-69
2022/11/27 06:02:47;;;;;;;1.33;1.23;;;4.30;99.90;;;;;;4387028;32;20067;-72
2022/11/27 06:05:12;;;;;;;1.35;1.25;;;4.20;99.90;;;;;;4367749;32;20070;-70
2022/11/27 06:07:38;;;;;;;1.23;1.12;;;4.20;99.90;;;;;;4376197;32;20067;-70
2022/11/27 06:10:04;;;;;;;1.85;1.05;;;4.20;99.90;;;;;;4387577;32;20074;-69
2022/11/27 06:12:31;;;;;;;0.70;0.70;;;4.10;99.90;;;;;;4389339;32;20066;-71
2022/11/27 06:14:56;;;;;;;1.75;1.05;;;4.10;99.90;;;;;;4388172;32;20095;-68
2022/11/27 06:17:22;;;;;;;7.37;1.95;;;4.10;99.90;;;;;;4384353;32;20067;-71
2022/11/27 06:19:47;;;;;;;3.12;1.10;;;4.00;99.90;;;;;;4388639;32;20157;-72
2022/11/27 06:22:13;;;;;;;0.95;0.95;;;3.90;99.90;;;;;;4386730;32;20086;-71
2022/11/27 06:24:38;;;;;;;1.23;1.12;;;3.90;99.90;;;;;;4383673;32;20617;-71
2022/11/27 06:27:04;;;;;;;3.12;1.95;;;3.80;99.90;;;;;;4384277;32;20122;-70
2022/11/27 06:29:29;;;;;;;5.05;1.85;;;3.80;99.90;;;;;;4387083;32;20082;-73
2022/11/27 06:31:55;;;;;;;0.77;0.77;;;3.80;99.90;;;;;;4384292;32;20067;-72
2022/11/27 06:34:20;;;;;;;3.80;1.62;;;3.90;99.90;;;;;;4369891;32;20137;-71
2022/11/27 06:36:46;;;;;;;1.10;0.90;;;4.00;99.90;;;;;;4370136;32;20096;-70
2022/11/27 06:39:11;;;;;;;3.95;1.42;;;4.20;99.90;;;;;;4385160;32;20491;-71
2022/11/27 06:41:37;;;;;;;0.62;0.62;;;4.10;99.90;;;;;;4385493;32;20078;-69
2022/11/27 06:44:03;;;;;;;3.37;1.75;;;4.10;99.90;;;;;;4387950;32;20066;-70
2022/11/27 06:46:29;;;;;;;0.82;0.80;;;4.20;99.90;;;;;;4387788;32;20066;-69
2022/11/27 06:48:55;;;;;;;1.37;1.05;;;4.20;99.90;;;;;;4387278;32;20090;-69
2022/11/27 06:51:23;;;;;;;0.82;0.82;;;4.20;99.90;;;;;;4387186;32;20332;-71
2022/11/27 06:53:50;;;;;;;1.02;1.02;;;4.00;99.90;;;;;;4386780;32;20089;-70
2022/11/27 06:56:18;;;;;;;0.70;0.70;;;4.00;99.90;;;;;;4385010;32;20061;-70
2022/11/27 06:58:44;;;;;;;0.40;0.40;;;4.00;99.90;;;;;;4385795;32;20499;-69
2022/11/27 07:01:13;;;;;;;1.70;1.50;;;4.00;99.90;;;;;;4388648;32;20129;-71
2022/11/27 07:03:39;;;;;;;1.17;0.85;;;3.90;99.90;;;;;;4381174;32;20149;-74
2022/11/27 07:06:06;;;;;;;8.93;2.55;;;3.90;99.90;;;;;;4371142;32;20094;-72
2022/11/27 07:08:33;;;;;;;0.50;0.50;;;3.90;99.90;;;;;;4384758;32;20145;-69
2022/11/27 07:11:09;;;;;;;0.50;0.50;;;3.80;99.90;;;;;;4386017;32;20546;-69
2022/11/27 07:13:34;;;;;;;0.50;0.50;;;3.70;99.90;;;;;;4387347;32;20094;-70
2022/11/27 07:16:02;;;;;;;7.22;1.95;;;3.70;99.90;;;;;;4386876;32;20070;-69
2022/11/27 07:18:28;;;;;;;0.82;0.82;;;3.70;99.90;;;;;;4386764;32;20286;-69
2022/11/27 07:20:54;;;;;;;3.08;1.92;;;3.70;99.90;;;;;;4390935;32;21868;-70
2022/11/27 07:23:20;;;;;;;0.82;0.80;;;3.70;99.90;;;;;;4384428;32;20085;-70
2022/11/27 07:25:45;;;;;;;9.77;1.83;;;3.70;99.90;;;;;;4385254;32;20066;-72
2022/11/27 07:28:11;;;;;;;0.80;0.80;;;3.70;99.90;;;;;;4386761;32;20512;-73
2022/11/27 07:30:36;;;;;;;1.85;1.42;;;3.80;99.90;;;;;;4383948;32;81410;-71
2022/11/27 07:33:02;;;;;;;1.37;1.20;;;3.80;99.90;;;;;;4380318;32;20073;-73
2022/11/27 07:35:27;;;;;;;1.85;1.30;;;3.80;99.90;;;;;;4369874;32;20120;-73
2022/11/27 07:37:53;;;;;;;0.93;0.93;;;3.80;99.90;;;;;;4377803;32;20603;-69
2022/11/27 07:40:18;;;;;;;0.43;0.43;;;3.80;99.90;;;;;;4383527;32;20732;-69
2022/11/27 07:42:44;;;;;;;2.83;0.98;;;3.70;99.90;;;;;;4383519;32;20141;-69
2022/11/27 07:45:10;;;;;;;0.57;0.57;;;3.80;99.90;;;;;;4383490;32;20084;-70
2022/11/27 07:47:36;;;;;;;0.50;0.50;;;3.70;99.90;;;;;;4388119;32;20090;-69
2022/11/27 07:50:02;;;;;;;1.00;0.82;;;3.80;99.90;;;;;;4390535;32;20090;-69
2022/11/27 07:52:28;;;;;;;0.77;0.77;;;3.80;99.90;;;;;;4387377;32;20073;-70
2022/11/27 07:54:53;;;;;;;4.28;2.15;;;3.90;99.90;;;;;;4384232;32;20470;-70
2022/11/27 07:57:19;;;;;;;1.17;1.15;;;3.90;99.90;;;;;;4385055;32;20520;-70
2022/11/27 07:59:44;;;;;;;0.70;0.70;;;3.90;99.90;;;;;;4385856;32;20066;-69
2022/11/27 08:02:12;;;;;;;3.15;2.20;;;3.90;99.90;;;;;;4384197;32;20073;-69
2022/11/27 08:04:38;;;;;;;1.08;1.08;;;4.00;99.90;;;;;;4369677;32;20134;-71
2022/11/27 08:07:03;;;;;;;0.60;0.60;;;4.00;99.90;;;;;;4374340;32;20133;-68
2022/11/27 08:09:29;;;;;;;1.27;1.20;;;4.00;99.90;;;;;;4386155;32;20109;-69
2022/11/27 08:11:54;;;;;;;0.93;0.93;;;4.20;99.90;;;;;;4387326;32;20133;-69
2022/11/27 08:14:20;;;;;;;19.50;2.87;;;4.20;99.90;;;;;;4385865;32;20083;-71
2022/11/27 08:16:46;;;;;;;0.65;0.65;;;4.20;99.90;;;;;;4387952;32;20142;-69
2022/11/27 08:19:11;;;;;;;0.80;0.80;;;4.10;99.90;;;;;;4390178;32;20086;-71
2022/11/27 08:21:37;;;;;;;3.65;2.25;;;4.10;99.90;;;;;;4387099;32;20443;-69
2022/11/27 08:24:02;;;;;;;0.77;0.77;;;4.30;99.90;;;;;;4386395;32;20100;-70
2022/11/27 08:26:28;;;;;;;0.45;0.45;;;4.30;99.90;;;;;;4387873;32;20530;-71
2022/11/27 08:28:55;;;;;;;4.72;1.35;;;4.40;99.90;;;;;;4390557;32;20593;-70
2022/11/27 08:31:20;;;;;;;1.15;1.12;;;4.40;99.90;;;;;;4388025;32;20105;-71
2022/11/27 08:33:46;;;;;;;1.00;1.00;;;4.40;99.90;;;;;;4375410;32;20462;-71
2022/11/27 08:36:12;;;;;;;1.00;1.00;;;4.50;99.90;;;;;;4369265;32;20148;-71
2022/11/27 08:38:38;;;;;;;1.05;1.00;;;4.60;99.90;;;;;;4387440;32;20082;-71
2022/11/27 08:41:05;;;;;;;0.55;0.55;;;4.70;99.90;;;;;;4388246;32;20070;-70
2022/11/27 08:43:33;;;;;;;0.62;0.57;;;4.70;99.90;;;;;;4388721;32;20110;-70
2022/11/27 08:45:58;;;;;;;1.25;1.20;;;4.80;99.90;;;;;;4386963;32;20181;-70
2022/11/27 08:48:24;;;;;;;5.28;1.87;;;4.80;99.90;;;;;;4386504;32;20095;-70
2022/11/27 08:50:52;;;;;;;0.70;0.70;;;4.90;99.90;;;;;;4387126;32;20078;-70
2022/11/27 08:53:17;;;;;;;0.47;0.47;;;4.90;99.90;;;;;;4384118;32;20250;-70
2022/11/27 08:55:44;;;;;;;0.68;0.68;;;5.00;99.90;;;;;;4387755;32;20133;-71
2022/11/27 08:58:09;;;;;;;0.62;0.62;;;5.10;99.90;;;;;;4384797;32;20094;-70
2022/11/27 09:00:36;;;;;;;1.77;0.77;;;5.20;99.90;;;;;;4386624;32;20530;-70
2022/11/27 09:03:01;;;;;;;0.88;0.88;;;5.10;99.90;;;;;;4386243;32;20078;-74
2022/11/27 09:05:28;;;;;;;12.98;1.40;;;5.10;99.90;;;;;;4365796;32;20126;-72
2022/11/27 09:07:54;;;;;;;1.10;1.02;;;5.20;99.90;;;;;;4381612;32;20074;-69
2022/11/27 09:10:20;;;;;;;1.05;1.00;;;5.20;99.90;;;;;;4382166;32;20070;-70
2022/11/27 09:12:47;;;;;;;0.50;0.50;;;5.20;99.90;;;;;;4383686;32;20082;-69
2022/11/27 09:15:13;;;;;;;8.07;1.02;;;5.20;99.90;;;;;;4385262;32;20103;-70
2022/11/27 09:17:38;;;;;;;0.55;0.55;;;5.30;99.90;;;;;;4387751;32;20362;-68
2022/11/27 09:20:05;;;;;;;0.80;0.80;;;5.40;99.90;;;;;;4386813;32;20073;-69
2022/11/27 09:22:32;;;;;;;1.42;1.25;;;5.50;99.90;;;;;;4389681;32;20062;-70
2022/11/27 09:24:58;;;;;;;1.10;0.90;;;5.60;99.90;;;;;;4388852;32;20110;-73
2022/11/27 09:27:23;;;;;;;1.08;0.88;;;5.70;99.90;;;;;;4386850;32;20609;-72
2022/11/27 09:29:50;;;;;;;2.25;1.58;;;5.70;99.90;;;;;;4384986;32;20114;-71
2022/11/27 09:32:15;;;;;;;0.68;0.68;;;5.80;99.90;;;;;;4386484;32;20189;-71
2022/11/27 09:34:41;;;;;;;1.40;1.25;;;5.90;99.90;;;;;;4370276;32;20615;-74
2022/11/27 09:37:07;;;;;;;0.93;0.93;;;5.90;99.90;;;;;;4373717;32;20067;-69
2022/11/27 09:39:33;;;;;;;0.52;0.52;;;6.00;99.90;;;;;;4386322;32;20086;-68
2022/11/27 09:42:01;;;;;;;1.00;0.93;;;6.10;99.90;;;;;;4382660;32;20063;-70
2022/11/27 09:44:51;;;;;;;1.65;1.02;;;6.40;99.90;;;;;;4387643;32;20067;-69
2022/11/27 09:47:29;;;;;;;1.23;1.10;;;6.30;99.90;;;;;;4369596;32;20090;-68
2022/11/27 09:50:00;;;;;;;1.00;0.90;;;6.20;99.90;;;;;;4384741;32;20070;-70
2022/11/27 09:52:48;;;;;;;0.77;0.77;;;6.30;99.90;;;;;;4390096;32;20074;-69
2022/11/27 09:55:36;;;;;;;1.95;1.35;;;6.50;99.90;;;;;;4373912;32;20075;-69
2022/11/27 09:58:14;;;;;;;0.93;0.93;;;6.60;99.90;;;;;;4374808;32;20410;-70
2022/11/27 10:00:41;;;;;;;0.57;0.57;;;6.60;99.90;;;;;;4388957;32;20121;-69
2022/11/27 10:03:13;;;;;;;0.60;0.60;;;6.70;99.90;;;;;;4383328;32;20063;-74
2022/11/27 10:05:53;;;;;;;0.98;0.77;;;6.70;99.90;;;;;;4369635;32;20393;-73
2022/11/27 10:08:30;;;;;;;1.42;0.85;;;6.60;99.90;;;;;;4383514;32;20075;-70
2022/11/27 10:11:24;;;;;;;2.05;1.30;;;6.80;99.90;;;;;;4386706;32;20062;-70
2022/11/27 10:14:02;;;;;;;0.85;0.68;;;6.70;99.90;;;;;;4376048;32;20141;-70
2022/11/27 10:16:51;;;;;;;4.37;1.12;;;6.90;99.90;;;;;;4389089;32;20330;-70
2022/11/27 10:19:43;;;;;;;1.48;1.37;;;6.90;99.90;;;;;;4378878;32;20075;-71
2022/11/27 10:22:18;;;;;;;1.30;0.98;;;6.90;99.90;;;;;;4374969;32;20152;-72
2022/11/27 10:25:10;;;;;;;2.58;1.52;;;7.00;99.90;;;;;;4390063;32;20435;-71
2022/11/27 10:27:43;;;;;;;0.98;0.75;;;7.00;99.90;;;;;;4372547;32;20550;-70
2022/11/27 10:30:15;;;;;;;0.75;0.75;;;7.00;99.90;;;;;;4385611;32;21097;-70
2022/11/27 10:32:41;;;;;;;1.60;0.93;;;7.10;99.90;;;;;;4385489;32;21205;-72
2022/11/27 10:35:25;;;;;;;0.85;0.68;;;7.30;99.90;;;;;;4366574;32;20091;-71
2022/11/27 10:37:56;;;;;;;0.95;0.85;;;7.20;99.90;;;;;;4366472;32;20847;-70
2022/11/27 10:40:30;;;;;;;0.90;0.90;;;7.30;99.90;;;;;;4387263;32;20390;-70
2022/11/27 10:43:06;;;;;;;2.97;1.45;;;7.30;99.90;;;;;;4384726;32;20451;-70
2022/11/27 10:45:58;;;;;;;5.68;0.65;;;7.20;99.90;;;;;;4389329;32;20140;-70
2022/11/27 10:48:24;;;;;;;1.75;1.25;;;7.30;99.90;;;;;;4376781;32;20133;-70
2022/11/27 10:50:50;;;;;;;0.68;0.68;;;7.40;99.90;;;;;;4383427;32;20083;-70
2022/11/27 10:53:25;;;;;;;0.90;0.77;;;7.40;99.90;;;;;;4386349;32;20070;-70
2022/11/27 10:56:14;;;;;;;2.17;0.95;;;7.50;99.90;;;;;;4384555;32;20155;-71
2022/11/27 10:59:01;;;;;;;0.55;0.55;;;7.70;99.90;;;;;;4375536;32;20071;-71
2022/11/27 11:01:40;;;;;;;0.93;0.93;;;8.00;99.90;;;;;;4374761;32;20241;-70
2022/11/27 11:04:07;;;;;;;1.27;1.00;;;7.90;99.90;;;;;;4369986;32;20173;-72
2022/11/27 11:06:38;;;;;;;3.08;1.35;;;7.80;99.90;;;;;;4369829;32;20549;-73
2022/11/27 11:09:14;;;;;;;0.95;0.95;;;7.80;99.90;;;;;;4384757;32;20081;-71
2022/11/27 11:11:39;;;;;;;0.62;0.62;;;7.80;99.90;;;;;;4381608;32;20079;-70
2022/11/27 11:14:16;;;;;;;0.70;0.70;;;7.80;99.90;;;;;;4384661;32;20079;-72
2022/11/27 11:16:43;;;;;;;10.48;1.25;;;8.10;99.90;;;;;;4385241;32;20083;-70
2022/11/27 11:19:26;;;;;;;0.98;0.90;;;8.10;99.90;;;;;;4387593;32;20141;-71
2022/11/27 11:21:52;;;;;;;0.82;0.82;;;8.00;99.90;;;;;;4387020;32;20118;-72
2022/11/27 11:24:28;;;;;;;1.35;1.20;;;7.80;99.90;;;;;;4383002;32;20078;-70
2022/11/27 11:26:58;;;;;;;0.47;0.47;;;7.80;99.90;;;;;;4384672;32;20129;-72
2022/11/27 11:29:30;;;;;;;0.70;0.70;;;7.80;99.90;;;;;;4382175;32;20175;-70
2022/11/27 11:31:58;;;;;;;0.50;0.50;;;7.90;99.90;;;;;;4384896;32;20153;-71
2022/11/27 11:34:27;;;;;;;1.12;0.88;;;8.40;99.90;;;;;;4368689;32;20098;-74
2022/11/27 11:37:00;;;;;;;0.50;0.50;;;8.60;99.90;;;;;;4373604;32;20075;-72
2022/11/27 11:39:29;;;;;;;0.55;0.55;;;8.70;99.90;;;;;;4385511;32;20074;-71
2022/11/27 11:41:55;;;;;;;0.75;0.75;;;9.00;99.90;;;;;;4380698;32;20090;-73
2022/11/27 11:44:29;;;;;;;0.62;0.62;;;9.10;99.90;;;;;;4384328;32;20063;-73
2022/11/27 11:46:55;;;;;;;1.05;1.00;;;9.50;99.90;;;;;;4386251;32;20110;-71
2022/11/27 11:49:24;;;;;;;1.10;0.77;;;9.80;99.90;;;;;;4385894;32;20264;-72
2022/11/27 11:52:03;;;;;;;1.35;1.25;;;10.00;99.90;;;;;;4384137;32;20141;-71
2022/11/27 11:54:57;;;;;;;0.60;0.60;;;10.10;99.90;;;;;;4385888;32;20551;-71
2022/11/27 11:57:35;;;;;;;1.85;1.02;;;10.40;99.90;;;;;;4374441;32;20525;-73
2022/11/27 12:00:10;;;;;;;0.90;0.90;;;10.70;99.90;;;;;;4388247;32;20059;-70
2022/11/27 12:03:01;;;;;;;0.70;0.70;;;10.90;99.90;;;;;;4387875;32;20167;-73
2022/11/27 12:05:37;;;;;;;3.08;1.10;;;10.80;99.90;;;;;;4355722;32;20117;-72
2022/11/27 12:08:42;;;;;;;1.45;0.90;;;10.70;99.90;;;;;;4383798;32;20074;-71
2022/11/27 12:11:14;;;;;;;0.52;0.50;;;10.90;99.90;;;;;;4366654;32;20087;-71
2022/11/27 12:14:00;;;;;;;1.85;1.25;;;11.10;99.90;;;;;;4387656;32;20542;-71
2022/11/27 12:16:29;;;;;;;9.23;0.70;;;10.70;99.90;;;;;;4379588;32;20113;-72
2022/11/27 12:19:10;;;;;;;0.62;0.62;;;10.40;99.90;;;;;;4385336;32;20070;-71
2022/11/27 12:22:00;;;;;;;9.55;1.58;;;10.10;99.90;;;;;;4388502;32;20082;-72
2022/11/27 12:25:02;;;;;;;0.73;0.65;;;9.70;99.90;;;;;;4381395;32;20542;-71
2022/11/27 12:27:56;;;;;;;0.80;0.70;;;9.60;99.90;;;;;;4377054;32;20090;-72
2022/11/27 12:30:26;;;;;;;4.45;2.30;;;9.10;99.90;;;;;;4375441;32;20086;-71
2022/11/27 12:33:25;;;;;;;0.50;0.50;;;9.10;99.90;;;;;;4386370;32;20078;-74
2022/11/27 12:36:05;;;;;;;1.80;0.90;;;9.30;99.90;;;;;;4351659;32;20133;-73
2022/11/27 12:38:59;;;;;;;1.33;0.93;;;9.70;99.90;;;;;;4384841;32;20070;-70
2022/11/27 12:41:52;;;;;;;1.37;0.93;;;9.80;99.90;;;;;;4373553;32;20174;-71
2022/11/27 12:44:31;;;;;;;0.62;0.60;;;10.00;99.90;;;;;;4385262;32;20074;-71
2022/11/27 12:47:08;;;;;;;0.50;0.50;;;10.40;99.90;;;;;;4387894;32;20510;-71
2022/11/27 12:49:44;;;;;;;0.50;0.50;;;10.60;99.90;;;;;;4389661;32;20058;-73
2022/11/27 12:52:33;;;;;;;0.68;0.68;;;10.90;99.90;;;;;;4386957;32;20098;-70
2022/11/27 12:55:11;;;;;;;1.85;0.73;;;11.20;99.90;;;;;;4376549;32;20085;-75
2022/11/27 12:57:44;;;;;;;0.57;0.57;;;11.10;99.90;;;;;;4386380;32;20083;-71
2022/11/27 13:00:17;;;;;;;0.60;0.60;;;10.90;99.90;;;;;;4388363;32;20102;-72
2022/11/27 13:03:06;;;;;;;1.00;0.80;;;10.60;99.90;;;;;;4383626;32;20147;-71
2022/11/27 13:05:39;;;;;;;0.47;0.47;;;10.30;99.90;;;;;;4355580;32;20063;-71
2022/11/27 13:08:12;;;;;;;0.75;0.45;;;10.30;99.90;;;;;;4383267;32;20083;-70
2022/11/27 13:10:48;;;;;;;0.60;0.60;;;10.10;99.90;;;;;;4382645;32;20523;-71
2022/11/27 13:13:23;;;;;;;0.70;0.70;;;9.90;99.90;;;;;;4386481;32;20061;-70